sensor_id;sensor_type;location;lat;lon;timestamp;P1;durP1;ratioP1;P2;durP2;ratioP2
44222;SDS011;29895;48.804;9.386;2023-04-25T06:27:09;7.82;;;5.07;;
44222;SDS011;29895;48.804;9.386;2023-04-25T06:29:35;11.27;;;5.72;;
44222;SDS011;29895;48.804;9.386;2023-04-25T06:32:00;7.38;;;4.65;;
44222;SDS011;29895;48.804;9.386;2023-04-25T06:34:26;8.70;;;4.78;;
44222;SDS011;29895;48.804;9.386;2023-04-25T06:36:51;7.22;;;4.80;;
44222;SDS011;29895;48.804;9.386;2023-04-25T06:39:17;8.20;;;4.38;;
44222;SDS011;29895;48.804;9.386;2023-04-25T06:41:45;6.47;;;4.15;;
44222;SDS011;29895;48.804;9.386;2023-04-25T06:44:10;7.28;;;4.10;;
44222;SDS011;29895;48.804;9.386;2023-04-25T06:46:36;7.45;;;4.25;;
44222;SDS011;29895;48.804;9.386;2023-04-25T06:49:02;4.90;;;4.05;;
44222;SDS011;29895;48.804;9.386;2023-04-25T06:51:28;6.50;;;3.55;;
44222;SDS011;29895;48.804;9.386;2023-04-25T06:53:55;5.45;;;3.92;;
44222;SDS011;29895;48.804;9.386;2023-04-25T06:56:20;5.88;;;3.05;;
44222;SDS011;29895;48.804;9.386;2023-04-25T06:58:46;6.93;;;4.28;;
44222;SDS011;29895;48.804;9.386;2023-04-25T07:01:12;5.32;;;3.63;;
44222;SDS011;29895;48.804;9.386;2023-04-25T07:03:38;8.15;;;4.40;;
44222;SDS011;29895;48.804;9.386;2023-04-25T07:06:03;4.60;;;3.55;;
44222;SDS011;29895;48.804;9.386;2023-04-25T07:08:29;6.80;;;3.88;;
44222;SDS011;29895;48.804;9.386;2023-04-25T07:10:54;4.45;;;3.47;;
44222;SDS011;29895;48.804;9.386;2023-04-25T07:13:20;6.20;;;3.42;;
44222;SDS011;29895;48.804;9.386;2023-04-25T07:15:46;6.43;;;3.63;;
44222;SDS011;29895;48.804;9.386;2023-04-25T07:18:13;8.48;;;3.67;;
44222;SDS011;29895;48.804;9.386;2023-04-25T07:20:38;5.95;;;3.50;;
44222;SDS011;29895;48.804;9.386;2023-04-25T07:23:04;7.07;;;3.90;;
44222;SDS011;29895;48.804;9.386;2023-04-25T07:25:30;9.02;;;3.75;;
44222;SDS011;29895;48.804;9.386;2023-04-25T07:27:56;6.00;;;3.60;;
44222;SDS011;29895;48.804;9.386;2023-04-25T07:30:22;6.53;;;3.97;;
44222;SDS011;29895;48.804;9.386;2023-04-25T07:32:48;8.10;;;3.83;;
44222;SDS011;29895;48.804;9.386;2023-04-25T07:35:15;9.23;;;4.50;;
44222;SDS011;29895;48.804;9.386;2023-04-25T07:37:42;7.57;;;4.07;;
44222;SDS011;29895;48.804;9.386;2023-04-25T07:40:08;9.95;;;4.43;;
44222;SDS011;29895;48.804;9.386;2023-04-25T07:42:34;5.70;;;4.15;;
44222;SDS011;29895;48.804;9.386;2023-04-25T07:45:01;7.82;;;4.60;;
44222;SDS011;29895;48.804;9.386;2023-04-25T07:47:26;8.63;;;4.40;;
44222;SDS011;29895;48.804;9.386;2023-04-25T07:49:52;6.72;;;4.65;;
44222;SDS011;29895;48.804;9.386;2023-04-25T07:52:18;6.22;;;4.25;;
44222;SDS011;29895;48.804;9.386;2023-04-25T07:54:43;7.22;;;4.78;;
44222;SDS011;29895;48.804;9.386;2023-04-25T07:57:10;7.57;;;4.85;;
44222;SDS011;29895;48.804;9.386;2023-04-25T07:59:35;6.35;;;4.43;;
44222;SDS011;29895;48.804;9.386;2023-04-25T08:02:01;8.60;;;5.45;;
44222;SDS011;29895;48.804;9.386;2023-04-25T08:04:27;6.53;;;4.95;;
44222;SDS011;29895;48.804;9.386;2023-04-25T08:06:53;8.00;;;5.22;;
44222;SDS011;29895;48.804;9.386;2023-04-25T08:09:19;7.40;;;4.97;;
44222;SDS011;29895;48.804;9.386;2023-04-25T08:11:45;7.05;;;5.30;;
44222;SDS011;29895;48.804;9.386;2023-04-25T08:14:11;8.05;;;5.05;;
44222;SDS011;29895;48.804;9.386;2023-04-25T08:16:37;7.10;;;4.55;;
44222;SDS011;29895;48.804;9.386;2023-04-25T08:19:03;6.05;;;4.80;;
44222;SDS011;29895;48.804;9.386;2023-04-25T08:21:30;9.70;;;5.70;;
44222;SDS011;29895;48.804;9.386;2023-04-25T08:23:56;8.27;;;5.80;;
44222;SDS011;29895;48.804;9.386;2023-04-25T08:26:23;14.40;;;7.20;;
44222;SDS011;29895;48.804;9.386;2023-04-25T08:28:49;13.30;;;5.95;;
44222;SDS011;29895;48.804;9.386;2023-04-25T08:31:15;9.50;;;6.78;;
44222;SDS011;29895;48.804;9.386;2023-04-25T08:33:41;10.68;;;7.07;;
44222;SDS011;29895;48.804;9.386;2023-04-25T08:36:07;11.68;;;7.35;;
44222;SDS011;29895;48.804;9.386;2023-04-25T08:38:33;14.32;;;8.18;;
44222;SDS011;29895;48.804;9.386;2023-04-25T08:40:59;12.15;;;7.47;;
44222;SDS011;29895;48.804;9.386;2023-04-25T08:43:28;13.32;;;7.97;;
44222;SDS011;29895;48.804;9.386;2023-04-25T08:45:58;10.93;;;7.40;;
44222;SDS011;29895;48.804;9.386;2023-04-25T08:48:26;13.43;;;7.90;;
44222;SDS011;29895;48.804;9.386;2023-04-25T08:50:56;13.85;;;7.80;;
44222;SDS011;29895;48.804;9.386;2023-04-25T08:53:27;10.75;;;6.78;;
44222;SDS011;29895;48.804;9.386;2023-04-25T08:55:55;9.73;;;5.38;;
44222;SDS011;29895;48.804;9.386;2023-04-25T08:58:22;10.85;;;7.45;;
44222;SDS011;29895;48.804;9.386;2023-04-25T09:00:48;14.13;;;8.10;;
44222;SDS011;29895;48.804;9.386;2023-04-25T09:03:15;12.13;;;7.80;;
44222;SDS011;29895;48.804;9.386;2023-04-25T09:05:44;13.07;;;8.40;;
44222;SDS011;29895;48.804;9.386;2023-04-25T09:08:10;15.85;;;8.93;;
44222;SDS011;29895;48.804;9.386;2023-04-25T09:10:36;14.70;;;9.57;;
44222;SDS011;29895;48.804;9.386;2023-04-25T09:15:28;13.90;;;8.95;;
44222;SDS011;29895;48.804;9.386;2023-04-25T09:17:58;14.18;;;8.88;;
44222;SDS011;29895;48.804;9.386;2023-04-25T09:20:24;14.02;;;9.75;;
44222;SDS011;29895;48.804;9.386;2023-04-25T09:23:03;13.05;;;8.70;;
44222;SDS011;29895;48.804;9.386;2023-04-25T09:25:34;19.58;;;9.23;;
44222;SDS011;29895;48.804;9.386;2023-04-25T09:28:03;14.85;;;8.30;;
44222;SDS011;29895;48.804;9.386;2023-04-25T09:30:30;17.35;;;8.85;;
44222;SDS011;29895;48.804;9.386;2023-04-25T09:33:08;10.73;;;7.55;;
44222;SDS011;29895;48.804;9.386;2023-04-25T09:35:39;11.27;;;7.00;;
44222;SDS011;29895;48.804;9.386;2023-04-25T09:38:20;7.00;;;5.35;;
44222;SDS011;29895;48.804;9.386;2023-04-25T09:40:46;9.00;;;5.70;;
44222;SDS011;29895;48.804;9.386;2023-04-25T09:43:24;10.43;;;5.95;;
44222;SDS011;29895;48.804;9.386;2023-04-25T09:45:50;11.05;;;5.85;;
44222;SDS011;29895;48.804;9.386;2023-04-25T09:48:18;7.18;;;4.95;;
44222;SDS011;29895;48.804;9.386;2023-04-25T09:50:47;5.63;;;4.22;;
44222;SDS011;29895;48.804;9.386;2023-04-25T09:53:39;8.65;;;4.75;;
44222;SDS011;29895;48.804;9.386;2023-04-25T09:56:07;10.60;;;5.78;;
44222;SDS011;29895;48.804;9.386;2023-04-25T09:58:35;12.02;;;5.90;;
44222;SDS011;29895;48.804;9.386;2023-04-25T10:01:03;12.43;;;6.07;;
44222;SDS011;29895;48.804;9.386;2023-04-25T10:03:31;9.18;;;5.30;;
44222;SDS011;29895;48.804;9.386;2023-04-25T10:06:01;10.07;;;5.03;;
44222;SDS011;29895;48.804;9.386;2023-04-25T10:08:38;8.80;;;5.38;;
44222;SDS011;29895;48.804;9.386;2023-04-25T10:11:06;8.18;;;5.10;;
44222;SDS011;29895;48.804;9.386;2023-04-25T10:13:33;9.07;;;5.72;;
44222;SDS011;29895;48.804;9.386;2023-04-25T10:16:00;6.80;;;4.75;;
44222;SDS011;29895;48.804;9.386;2023-04-25T10:18:31;10.52;;;5.53;;
44222;SDS011;29895;48.804;9.386;2023-04-25T10:20:58;8.27;;;5.05;;
44222;SDS011;29895;48.804;9.386;2023-04-25T10:23:25;8.48;;;4.75;;
44222;SDS011;29895;48.804;9.386;2023-04-25T10:25:52;9.23;;;5.18;;
44222;SDS011;29895;48.804;9.386;2023-04-25T10:28:18;9.95;;;5.03;;
44222;SDS011;29895;48.804;9.386;2023-04-25T10:31:00;9.43;;;5.10;;
44222;SDS011;29895;48.804;9.386;2023-04-25T10:36:13;7.53;;;4.50;;
44222;SDS011;29895;48.804;9.386;2023-04-25T10:38:40;6.75;;;4.40;;
44222;SDS011;29895;48.804;9.386;2023-04-25T10:41:08;10.02;;;3.58;;
44222;SDS011;29895;48.804;9.386;2023-04-25T10:43:35;11.65;;;5.38;;
44222;SDS011;29895;48.804;9.386;2023-04-25T10:46:15;24.30;;;9.17;;
44222;SDS011;29895;48.804;9.386;2023-04-25T10:48:52;23.38;;;8.05;;
44222;SDS011;29895;48.804;9.386;2023-04-25T10:51:22;6.25;;;3.58;;
44222;SDS011;29895;48.804;9.386;2023-04-25T11:01:41;8.10;;;4.63;;
44222;SDS011;29895;48.804;9.386;2023-04-25T11:04:30;7.72;;;3.97;;
44222;SDS011;29895;48.804;9.386;2023-04-25T11:09:24;8.30;;;4.85;;
44222;SDS011;29895;48.804;9.386;2023-04-25T11:11:56;9.10;;;6.03;;
44222;SDS011;29895;48.804;9.386;2023-04-25T11:14:23;8.27;;;5.72;;
44222;SDS011;29895;48.804;9.386;2023-04-25T11:16:56;14.07;;;6.38;;
44222;SDS011;29895;48.804;9.386;2023-04-25T11:19:24;13.13;;;5.22;;
44222;SDS011;29895;48.804;9.386;2023-04-25T11:21:50;9.82;;;6.05;;
44222;SDS011;29895;48.804;9.386;2023-04-25T11:24:19;10.05;;;6.35;;
44222;SDS011;29895;48.804;9.386;2023-04-25T11:26:50;6.05;;;3.95;;
44222;SDS011;29895;48.804;9.386;2023-04-25T11:29:15;8.25;;;4.28;;
44222;SDS011;29895;48.804;9.386;2023-04-25T11:31:44;8.82;;;5.22;;
44222;SDS011;29895;48.804;9.386;2023-04-25T11:34:16;9.38;;;5.45;;
44222;SDS011;29895;48.804;9.386;2023-04-25T11:36:43;9.57;;;5.25;;
44222;SDS011;29895;48.804;9.386;2023-04-25T11:39:10;8.10;;;4.53;;
44222;SDS011;29895;48.804;9.386;2023-04-25T11:41:39;6.03;;;4.18;;
44222;SDS011;29895;48.804;9.386;2023-04-25T11:44:06;6.78;;;4.55;;
44222;SDS011;29895;48.804;9.386;2023-04-25T11:46:35;10.65;;;5.47;;
44222;SDS011;29895;48.804;9.386;2023-04-25T11:49:01;11.98;;;6.22;;
44222;SDS011;29895;48.804;9.386;2023-04-25T11:51:26;8.57;;;4.65;;
44222;SDS011;29895;48.804;9.386;2023-04-25T11:53:52;9.05;;;5.15;;
44222;SDS011;29895;48.804;9.386;2023-04-25T11:56:18;7.22;;;4.40;;
44222;SDS011;29895;48.804;9.386;2023-04-25T11:59:01;5.68;;;3.97;;
44222;SDS011;29895;48.804;9.386;2023-04-25T12:01:31;5.60;;;3.53;;
44222;SDS011;29895;48.804;9.386;2023-04-25T12:03:58;6.68;;;3.20;;
44222;SDS011;29895;48.804;9.386;2023-04-25T12:06:36;7.13;;;3.70;;
44222;SDS011;29895;48.804;9.386;2023-04-25T12:09:06;4.20;;;2.30;;
44222;SDS011;29895;48.804;9.386;2023-04-25T12:11:40;2.40;;;1.55;;
44222;SDS011;29895;48.804;9.386;2023-04-25T12:14:20;3.15;;;2.08;;
44222;SDS011;29895;48.804;9.386;2023-04-25T12:16:54;4.15;;;2.30;;
44222;SDS011;29895;48.804;9.386;2023-04-25T12:19:22;4.88;;;2.75;;
44222;SDS011;29895;48.804;9.386;2023-04-25T12:21:48;3.85;;;2.50;;
44222;SDS011;29895;48.804;9.386;2023-04-25T12:26:52;9.23;;;4.22;;
44222;SDS011;29895;48.804;9.386;2023-04-25T12:29:18;8.70;;;3.75;;
44222;SDS011;29895;48.804;9.386;2023-04-25T12:31:47;6.45;;;2.88;;
44222;SDS011;29895;48.804;9.386;2023-04-25T12:34:13;5.32;;;2.85;;
44222;SDS011;29895;48.804;9.386;2023-04-25T12:36:39;3.40;;;2.80;;
44222;SDS011;29895;48.804;9.386;2023-04-25T12:39:05;4.93;;;2.97;;
44222;SDS011;29895;48.804;9.386;2023-04-25T12:41:32;4.07;;;2.80;;
44222;SDS011;29895;48.804;9.386;2023-04-25T12:43:57;5.53;;;3.10;;
44222;SDS011;29895;48.804;9.386;2023-04-25T12:46:23;4.80;;;3.00;;
44222;SDS011;29895;48.804;9.386;2023-04-25T12:48:49;4.93;;;3.63;;
44222;SDS011;29895;48.804;9.386;2023-04-25T12:51:15;5.18;;;3.63;;
44222;SDS011;29895;48.804;9.386;2023-04-25T12:53:40;4.93;;;3.28;;
44222;SDS011;29895;48.804;9.386;2023-04-25T12:56:07;4.85;;;3.55;;
44222;SDS011;29895;48.804;9.386;2023-04-25T12:58:33;6.30;;;3.47;;
44222;SDS011;29895;48.804;9.386;2023-04-25T13:00:58;6.70;;;3.50;;
44222;SDS011;29895;48.804;9.386;2023-04-25T13:03:24;6.15;;;3.45;;
44222;SDS011;29895;48.804;9.386;2023-04-25T13:05:50;5.65;;;3.88;;
44222;SDS011;29895;48.804;9.386;2023-04-25T13:08:20;5.78;;;4.07;;
44222;SDS011;29895;48.804;9.386;2023-04-25T13:10:47;6.82;;;4.13;;
44222;SDS011;29895;48.804;9.386;2023-04-25T13:13:13;6.72;;;4.55;;
44222;SDS011;29895;48.804;9.386;2023-04-25T13:15:38;8.10;;;5.10;;
44222;SDS011;29895;48.804;9.386;2023-04-25T13:18:04;7.35;;;4.85;;
44222;SDS011;29895;48.804;9.386;2023-04-25T13:20:33;9.82;;;4.93;;
44222;SDS011;29895;48.804;9.386;2023-04-25T13:22:59;8.07;;;5.15;;
44222;SDS011;29895;48.804;9.386;2023-04-25T13:25:24;6.68;;;4.70;;
44222;SDS011;29895;48.804;9.386;2023-04-25T13:27:50;6.93;;;4.75;;
44222;SDS011;29895;48.804;9.386;2023-04-25T13:30:16;9.43;;;4.75;;
44222;SDS011;29895;48.804;9.386;2023-04-25T13:32:44;7.43;;;4.65;;
44222;SDS011;29895;48.804;9.386;2023-04-25T13:35:11;10.30;;;5.35;;
44222;SDS011;29895;48.804;9.386;2023-04-25T13:37:39;9.55;;;6.07;;
44222;SDS011;29895;48.804;9.386;2023-04-25T13:40:09;10.23;;;6.63;;
44222;SDS011;29895;48.804;9.386;2023-04-25T13:42:36;10.18;;;6.28;;
44222;SDS011;29895;48.804;9.386;2023-04-25T13:45:02;10.02;;;6.13;;
44222;SDS011;29895;48.804;9.386;2023-04-25T13:47:29;9.25;;;6.25;;
44222;SDS011;29895;48.804;9.386;2023-04-25T13:49:55;13.23;;;7.00;;
44222;SDS011;29895;48.804;9.386;2023-04-25T13:52:21;10.98;;;6.20;;
44222;SDS011;29895;48.804;9.386;2023-04-25T13:54:52;8.85;;;5.85;;
44222;SDS011;29895;48.804;9.386;2023-04-25T13:57:20;10.88;;;6.55;;
44222;SDS011;29895;48.804;9.386;2023-04-25T13:59:46;12.35;;;6.75;;
44222;SDS011;29895;48.804;9.386;2023-04-25T14:02:11;28.33;;;7.68;;
44222;SDS011;29895;48.804;9.386;2023-04-25T14:04:37;13.80;;;7.25;;
44222;SDS011;29895;48.804;9.386;2023-04-25T14:07:03;13.63;;;6.43;;
44222;SDS011;29895;48.804;9.386;2023-04-25T14:09:29;17.63;;;7.55;;
44222;SDS011;29895;48.804;9.386;2023-04-25T14:11:55;14.07;;;6.72;;
44222;SDS011;29895;48.804;9.386;2023-04-25T14:14:21;13.57;;;7.10;;
44222;SDS011;29895;48.804;9.386;2023-04-25T14:16:50;10.90;;;6.45;;
44222;SDS011;29895;48.804;9.386;2023-04-25T14:19:18;9.13;;;6.10;;
44222;SDS011;29895;48.804;9.386;2023-04-25T14:21:45;12.35;;;7.35;;
44222;SDS011;29895;48.804;9.386;2023-04-25T14:24:11;13.73;;;7.30;;
44222;SDS011;29895;48.804;9.386;2023-04-25T14:26:39;10.90;;;7.70;;
44222;SDS011;29895;48.804;9.386;2023-04-25T14:29:05;14.18;;;8.02;;
44222;SDS011;29895;48.804;9.386;2023-04-25T14:31:32;13.02;;;8.05;;
44222;SDS011;29895;48.804;9.386;2023-04-25T14:33:58;12.32;;;7.63;;
44222;SDS011;29895;48.804;9.386;2023-04-25T14:36:27;16.02;;;8.35;;
44222;SDS011;29895;48.804;9.386;2023-04-25T14:38:53;14.75;;;8.13;;
44222;SDS011;29895;48.804;9.386;2023-04-25T14:41:19;14.20;;;8.23;;
44222;SDS011;29895;48.804;9.386;2023-04-25T14:43:45;12.32;;;8.00;;
44222;SDS011;29895;48.804;9.386;2023-04-25T14:46:10;19.92;;;9.75;;
44222;SDS011;29895;48.804;9.386;2023-04-25T14:48:36;13.18;;;7.78;;
44222;SDS011;29895;48.804;9.386;2023-04-25T14:51:02;15.65;;;8.30;;
44222;SDS011;29895;48.804;9.386;2023-04-25T14:53:28;11.07;;;7.05;;
44222;SDS011;29895;48.804;9.386;2023-04-25T14:55:54;10.63;;;6.78;;
44222;SDS011;29895;48.804;9.386;2023-04-25T14:58:20;16.52;;;7.18;;
44222;SDS011;29895;48.804;9.386;2023-04-25T15:00:46;11.10;;;7.13;;
44222;SDS011;29895;48.804;9.386;2023-04-25T15:03:12;12.15;;;7.28;;
44222;SDS011;29895;48.804;9.386;2023-04-25T15:05:40;12.70;;;6.82;;
44222;SDS011;29895;48.804;9.386;2023-04-25T15:08:06;13.52;;;7.88;;
44222;SDS011;29895;48.804;9.386;2023-04-25T15:10:32;10.95;;;6.85;;
44222;SDS011;29895;48.804;9.386;2023-04-25T15:12:58;12.43;;;6.55;;
44222;SDS011;29895;48.804;9.386;2023-04-25T15:15:24;11.30;;;7.05;;
44222;SDS011;29895;48.804;9.386;2023-04-25T15:17:49;14.30;;;7.40;;
44222;SDS011;29895;48.804;9.386;2023-04-25T15:20:15;10.70;;;6.50;;
44222;SDS011;29895;48.804;9.386;2023-04-25T15:22:42;11.07;;;6.03;;
44222;SDS011;29895;48.804;9.386;2023-04-25T15:25:10;11.90;;;6.38;;
44222;SDS011;29895;48.804;9.386;2023-04-25T15:27:38;10.77;;;6.03;;
44222;SDS011;29895;48.804;9.386;2023-04-25T15:30:09;12.38;;;6.85;;
44222;SDS011;29895;48.804;9.386;2023-04-25T15:32:37;10.82;;;6.30;;
44222;SDS011;29895;48.804;9.386;2023-04-25T15:35:04;10.07;;;6.78;;
44222;SDS011;29895;48.804;9.386;2023-04-25T15:37:31;11.75;;;6.55;;
44222;SDS011;29895;48.804;9.386;2023-04-25T15:40:00;11.02;;;6.20;;
44222;SDS011;29895;48.804;9.386;2023-04-25T15:42:26;10.25;;;5.28;;
44222;SDS011;29895;48.804;9.386;2023-04-25T15:44:51;9.38;;;4.68;;
44222;SDS011;29895;48.804;9.386;2023-04-25T15:47:17;7.60;;;4.80;;
44222;SDS011;29895;48.804;9.386;2023-04-25T15:49:43;5.68;;;4.50;;
44222;SDS011;29895;48.804;9.386;2023-04-25T15:52:08;8.98;;;4.82;;
44222;SDS011;29895;48.804;9.386;2023-04-25T15:54:34;9.05;;;4.68;;
44222;SDS011;29895;48.804;9.386;2023-04-25T15:57:02;9.75;;;5.18;;
44222;SDS011;29895;48.804;9.386;2023-04-25T15:59:28;9.00;;;5.15;;
44222;SDS011;29895;48.804;9.386;2023-04-25T16:01:53;9.68;;;5.43;;
44222;SDS011;29895;48.804;9.386;2023-04-25T16:04:21;9.85;;;5.30;;
44222;SDS011;29895;48.804;9.386;2023-04-25T16:06:46;12.82;;;5.38;;
44222;SDS011;29895;48.804;9.386;2023-04-25T16:09:13;7.78;;;4.93;;
44222;SDS011;29895;48.804;9.386;2023-04-25T16:11:39;9.93;;;6.22;;
44222;SDS011;29895;48.804;9.386;2023-04-25T16:14:05;8.90;;;5.53;;
44222;SDS011;29895;48.804;9.386;2023-04-25T16:16:31;8.63;;;5.47;;
44222;SDS011;29895;48.804;9.386;2023-04-25T16:18:56;9.10;;;5.72;;
44222;SDS011;29895;48.804;9.386;2023-04-25T16:21:22;12.00;;;6.57;;
44222;SDS011;29895;48.804;9.386;2023-04-25T16:23:48;11.02;;;6.03;;
44222;SDS011;29895;48.804;9.386;2023-04-25T16:26:13;12.40;;;6.40;;
44222;SDS011;29895;48.804;9.386;2023-04-25T16:28:39;13.40;;;7.18;;
44222;SDS011;29895;48.804;9.386;2023-04-25T16:31:05;9.07;;;6.25;;
44222;SDS011;29895;48.804;9.386;2023-04-25T16:33:31;12.77;;;6.47;;
44222;SDS011;29895;48.804;9.386;2023-04-25T16:35:56;9.40;;;5.90;;
44222;SDS011;29895;48.804;9.386;2023-04-25T16:38:22;9.60;;;5.78;;
44222;SDS011;29895;48.804;9.386;2023-04-25T16:40:48;12.23;;;6.95;;
44222;SDS011;29895;48.804;9.386;2023-04-25T16:43:13;11.23;;;6.30;;
44222;SDS011;29895;48.804;9.386;2023-04-25T16:45:43;9.38;;;5.75;;
44222;SDS011;29895;48.804;9.386;2023-04-25T16:48:09;11.45;;;5.88;;
44222;SDS011;29895;48.804;9.386;2023-04-25T16:50:35;8.60;;;5.82;;
44222;SDS011;29895;48.804;9.386;2023-04-25T16:53:03;14.98;;;6.88;;
44222;SDS011;29895;48.804;9.386;2023-04-25T16:55:28;13.15;;;6.53;;
44222;SDS011;29895;48.804;9.386;2023-04-25T16:57:54;13.02;;;6.57;;
44222;SDS011;29895;48.804;9.386;2023-04-25T17:00:20;10.90;;;6.15;;
44222;SDS011;29895;48.804;9.386;2023-04-25T17:02:45;11.50;;;7.10;;
44222;SDS011;29895;48.804;9.386;2023-04-25T17:05:11;15.18;;;7.45;;
44222;SDS011;29895;48.804;9.386;2023-04-25T17:07:37;11.75;;;6.93;;
44222;SDS011;29895;48.804;9.386;2023-04-25T17:10:03;12.80;;;6.15;;
44222;SDS011;29895;48.804;9.386;2023-04-25T17:12:29;10.70;;;6.82;;
44222;SDS011;29895;48.804;9.386;2023-04-25T17:14:55;12.32;;;6.75;;
44222;SDS011;29895;48.804;9.386;2023-04-25T17:17:21;13.07;;;6.75;;
44222;SDS011;29895;48.804;9.386;2023-04-25T17:19:46;14.07;;;7.25;;
44222;SDS011;29895;48.804;9.386;2023-04-25T17:22:12;12.75;;;6.63;;
44222;SDS011;29895;48.804;9.386;2023-04-25T17:24:38;12.10;;;7.03;;
44222;SDS011;29895;48.804;9.386;2023-04-25T17:27:04;16.00;;;7.70;;
44222;SDS011;29895;48.804;9.386;2023-04-25T17:29:30;18.45;;;8.88;;
44222;SDS011;29895;48.804;9.386;2023-04-25T17:31:57;16.17;;;7.93;;
44222;SDS011;29895;48.804;9.386;2023-04-25T17:34:22;13.32;;;8.23;;
44222;SDS011;29895;48.804;9.386;2023-04-25T17:36:48;18.08;;;8.05;;
44222;SDS011;29895;48.804;9.386;2023-04-25T17:39:14;13.52;;;7.63;;
44222;SDS011;29895;48.804;9.386;2023-04-25T17:41:41;18.15;;;8.48;;
44222;SDS011;29895;48.804;9.386;2023-04-25T17:44:07;15.45;;;8.00;;
44222;SDS011;29895;48.804;9.386;2023-04-25T17:46:33;19.10;;;7.68;;
44222;SDS011;29895;48.804;9.386;2023-04-25T17:48:58;11.77;;;7.45;;
44222;SDS011;29895;48.804;9.386;2023-04-25T17:51:25;16.10;;;8.50;;
44222;SDS011;29895;48.804;9.386;2023-04-25T17:53:50;17.52;;;8.25;;
44222;SDS011;29895;48.804;9.386;2023-04-25T17:56:16;15.43;;;8.70;;
44222;SDS011;29895;48.804;9.386;2023-04-25T17:58:43;18.35;;;8.95;;
44222;SDS011;29895;48.804;9.386;2023-04-25T18:01:08;16.65;;;8.73;;
44222;SDS011;29895;48.804;9.386;2023-04-25T18:03:34;13.18;;;8.18;;
44222;SDS011;29895;48.804;9.386;2023-04-25T18:06:02;11.02;;;7.00;;
44222;SDS011;29895;48.804;9.386;2023-04-25T18:08:28;12.65;;;7.13;;
44222;SDS011;29895;48.804;9.386;2023-04-25T18:10:54;13.73;;;8.07;;
44222;SDS011;29895;48.804;9.386;2023-04-25T18:13:21;14.57;;;7.43;;
44222;SDS011;29895;48.804;9.386;2023-04-25T18:15:48;16.35;;;8.48;;
44222;SDS011;29895;48.804;9.386;2023-04-25T18:18:15;10.52;;;7.63;;
44222;SDS011;29895;48.804;9.386;2023-04-25T18:20:44;17.45;;;8.07;;
44222;SDS011;29895;48.804;9.386;2023-04-25T18:23:11;18.75;;;8.35;;
44222;SDS011;29895;48.804;9.386;2023-04-25T18:25:37;14.90;;;8.20;;
44222;SDS011;29895;48.804;9.386;2023-04-25T18:28:02;14.20;;;7.75;;
44222;SDS011;29895;48.804;9.386;2023-04-25T18:30:28;18.73;;;7.47;;
44222;SDS011;29895;48.804;9.386;2023-04-25T18:32:54;16.05;;;8.40;;
44222;SDS011;29895;48.804;9.386;2023-04-25T18:35:20;17.75;;;8.52;;
44222;SDS011;29895;48.804;9.386;2023-04-25T18:37:46;15.30;;;8.93;;
44222;SDS011;29895;48.804;9.386;2023-04-25T18:40:12;16.65;;;8.65;;
44222;SDS011;29895;48.804;9.386;2023-04-25T18:42:39;16.23;;;8.20;;
44222;SDS011;29895;48.804;9.386;2023-04-25T18:45:05;14.68;;;8.80;;
44222;SDS011;29895;48.804;9.386;2023-04-25T18:47:32;12.48;;;7.68;;
44222;SDS011;29895;48.804;9.386;2023-04-25T18:49:57;16.50;;;9.43;;
44222;SDS011;29895;48.804;9.386;2023-04-25T18:52:23;15.05;;;8.98;;
44222;SDS011;29895;48.804;9.386;2023-04-25T18:54:50;15.90;;;8.90;;
44222;SDS011;29895;48.804;9.386;2023-04-25T18:57:16;16.77;;;8.55;;
44222;SDS011;29895;48.804;9.386;2023-04-25T18:59:42;12.38;;;8.05;;
44222;SDS011;29895;48.804;9.386;2023-04-25T19:02:09;15.63;;;7.95;;
44222;SDS011;29895;48.804;9.386;2023-04-25T19:04:35;12.93;;;6.55;;
44222;SDS011;29895;48.804;9.386;2023-04-25T19:07:01;13.65;;;7.18;;
44222;SDS011;29895;48.804;9.386;2023-04-25T19:09:27;13.35;;;6.88;;
44222;SDS011;29895;48.804;9.386;2023-04-25T19:11:53;11.98;;;6.30;;
44222;SDS011;29895;48.804;9.386;2023-04-25T19:14:19;20.02;;;11.07;;
44222;SDS011;29895;48.804;9.386;2023-04-25T19:16:45;15.50;;;8.35;;
44222;SDS011;29895;48.804;9.386;2023-04-25T19:19:10;11.55;;;7.28;;
44222;SDS011;29895;48.804;9.386;2023-04-25T19:21:36;10.85;;;6.78;;
44222;SDS011;29895;48.804;9.386;2023-04-25T19:24:02;12.52;;;7.32;;
44222;SDS011;29895;48.804;9.386;2023-04-25T19:26:29;14.80;;;7.90;;
44222;SDS011;29895;48.804;9.386;2023-04-25T19:29:05;15.73;;;7.70;;
44222;SDS011;29895;48.804;9.386;2023-04-25T19:31:34;12.93;;;7.53;;
44222;SDS011;29895;48.804;9.386;2023-04-25T19:34:00;15.70;;;8.20;;
44222;SDS011;29895;48.804;9.386;2023-04-25T19:36:27;13.25;;;8.05;;
44222;SDS011;29895;48.804;9.386;2023-04-25T19:38:52;15.30;;;8.18;;
44222;SDS011;29895;48.804;9.386;2023-04-25T19:41:18;13.68;;;8.43;;
44222;SDS011;29895;48.804;9.386;2023-04-25T19:43:45;17.23;;;9.10;;
44222;SDS011;29895;48.804;9.386;2023-04-25T19:46:10;15.60;;;9.30;;
44222;SDS011;29895;48.804;9.386;2023-04-25T19:48:37;15.35;;;8.75;;
44222;SDS011;29895;48.804;9.386;2023-04-25T19:51:05;17.95;;;8.80;;
44222;SDS011;29895;48.804;9.386;2023-04-25T19:53:31;18.90;;;9.77;;
44222;SDS011;29895;48.804;9.386;2023-04-25T19:55:57;13.88;;;8.77;;
44222;SDS011;29895;48.804;9.386;2023-04-25T19:58:23;14.93;;;8.95;;
44222;SDS011;29895;48.804;9.386;2023-04-25T20:00:48;18.20;;;9.00;;
44222;SDS011;29895;48.804;9.386;2023-04-25T20:03:15;17.00;;;10.10;;
44222;SDS011;29895;48.804;9.386;2023-04-25T20:05:40;40.53;;;25.13;;
44222;SDS011;29895;48.804;9.386;2023-04-25T20:08:06;28.17;;;17.02;;
44222;SDS011;29895;48.804;9.386;2023-04-25T20:10:32;19.00;;;11.50;;
44222;SDS011;29895;48.804;9.386;2023-04-25T20:12:58;14.25;;;8.77;;
44222;SDS011;29895;48.804;9.386;2023-04-25T20:15:23;15.45;;;8.82;;
44222;SDS011;29895;48.804;9.386;2023-04-25T20:17:49;14.38;;;8.35;;
44222;SDS011;29895;48.804;9.386;2023-04-25T20:20:15;21.00;;;10.52;;
44222;SDS011;29895;48.804;9.386;2023-04-25T20:22:41;22.33;;;11.90;;
44222;SDS011;29895;48.804;9.386;2023-04-25T20:25:07;40.38;;;23.13;;
44222;SDS011;29895;48.804;9.386;2023-04-25T20:27:34;29.55;;;12.73;;
44222;SDS011;29895;48.804;9.386;2023-04-25T20:30:02;19.25;;;11.18;;
44222;SDS011;29895;48.804;9.386;2023-04-25T20:32:32;17.80;;;10.02;;
44222;SDS011;29895;48.804;9.386;2023-04-25T20:34:59;38.58;;;20.65;;
44222;SDS011;29895;48.804;9.386;2023-04-25T20:37:26;28.25;;;15.48;;
44222;SDS011;29895;48.804;9.386;2023-04-25T20:39:52;23.33;;;14.15;;
44222;SDS011;29895;48.804;9.386;2023-04-25T20:42:17;69.45;;;37.35;;
44222;SDS011;29895;48.804;9.386;2023-04-25T20:44:43;26.95;;;14.35;;
44222;SDS011;29895;48.804;9.386;2023-04-25T20:47:09;16.27;;;10.90;;
44222;SDS011;29895;48.804;9.386;2023-04-25T20:49:34;26.75;;;15.82;;
44222;SDS011;29895;48.804;9.386;2023-04-25T20:52:01;22.42;;;12.57;;
44222;SDS011;29895;48.804;9.386;2023-04-25T20:54:27;19.33;;;10.65;;
44222;SDS011;29895;48.804;9.386;2023-04-25T20:56:54;18.10;;;10.45;;
44222;SDS011;29895;48.804;9.386;2023-04-25T20:59:20;17.73;;;10.13;;
44222;SDS011;29895;48.804;9.386;2023-04-25T21:01:46;15.73;;;9.77;;
44222;SDS011;29895;48.804;9.386;2023-04-25T21:04:11;17.20;;;9.80;;
44222;SDS011;29895;48.804;9.386;2023-04-25T21:06:37;15.27;;;9.95;;
44222;SDS011;29895;48.804;9.386;2023-04-25T21:09:02;26.02;;;12.20;;
44222;SDS011;29895;48.804;9.386;2023-04-25T21:11:28;21.85;;;11.93;;
44222;SDS011;29895;48.804;9.386;2023-04-25T21:13:54;23.33;;;13.27;;
44222;SDS011;29895;48.804;9.386;2023-04-25T21:16:20;21.45;;;14.20;;
44222;SDS011;29895;48.804;9.386;2023-04-25T21:18:46;23.83;;;12.23;;
44222;SDS011;29895;48.804;9.386;2023-04-25T21:21:11;19.55;;;10.00;;